Industrial More — PCTF — position and weather

sailwx.info

Track history (hours):
 
Tides and Currents Weather Stations Pressure Air Temp Water Temp Dewpoint Dewpoint Depression Visibility Wind Speed Wind Dir Waves Ship Positions

Industrial More

Last reported at 2018-Feb-20 12:54 UTC. Time now 2018-Feb-20 15:51 UTC.
Position N 29°18' W 094°25'.

Length 116 m; draft 4.6 m.

Type: Cargo ship. MMSI: 246921000.

Date/timePositionNaut miles runAvg speedWind from/ knotsBaromVisibWave heightAir tempDewpointWater temp
2018-Feb-20 12:54N 29°18' W 094°25'0 0.0
2018-Feb-20 12:30N 29°18' W 094°25'0 0.0
2018-Feb-20 11:39N 29°18' W 094°25'0 0.2
2018-Feb-20 11:24N 29°18' W 094°25'1 1.9
2018-Feb-20 11:00N 29°18' W 094°25'2 4.3
2018-Feb-20 10:30N 29°16' W 094°24'3 6.2
2018-Feb-20 09:59N 29°13' W 094°24'510.5
2018-Feb-20 09:29N 29°07' W 094°25'611.1
2018-Feb-20 08:58N 29°02' W 094°25'511.0
2018-Feb-20 08:30N 28°57' W 094°25'611.2
2018-Feb-20 07:56N 28°50' W 094°25'911.3
2018-Feb-20 07:10N 28°42' W 094°25'211.3
2018-Feb-20 07:00N 28°40' W 094°25'611.2
2018-Feb-20 06:30N 28°34' W 094°25'611.1
2018-Feb-20 06:00N 28°29' W 094°25'711.1
2018-Feb-20 05:23N 28°22' W 094°25'  
Track history (hours):
 
Tides and Currents Weather Stations Pressure Air Temp Water Temp Dewpoint Dewpoint Depression Visibility Wind Speed Wind Dir Waves Ship Positions

Industrial More

Last reported at 2018-Feb-20 12:54 UTC. Time now 2018-Feb-20 15:51 UTC.
Position N 29°18' W 094°25'.

Length 116 m; draft 4.6 m.

Type: Cargo ship. MMSI: 246921000.

Date/timePositionNaut miles runAvg speedWind from/ knotsBaromVisibWave heightAir tempDewpointWater temp
2018-Feb-20 12:54N 29°18' W 094°25'0 0.0
2018-Feb-20 12:30N 29°18' W 094°25'0 0.0
2018-Feb-20 11:39N 29°18' W 094°25'0 0.2
2018-Feb-20 11:24N 29°18' W 094°25'1 1.9
2018-Feb-20 11:00N 29°18' W 094°25'2 4.3
2018-Feb-20 10:30N 29°16' W 094°24'3 6.2
2018-Feb-20 09:59N 29°13' W 094°24'510.5
2018-Feb-20 09:29N 29°07' W 094°25'611.1
2018-Feb-20 08:58N 29°02' W 094°25'511.0
2018-Feb-20 08:30N 28°57' W 094°25'611.2
2018-Feb-20 07:56N 28°50' W 094°25'911.3
2018-Feb-20 07:10N 28°42' W 094°25'211.3
2018-Feb-20 07:00N 28°40' W 094°25'611.2
2018-Feb-20 06:30N 28°34' W 094°25'611.1
2018-Feb-20 06:00N 28°29' W 094°25'711.1
2018-Feb-20 05:23N 28°22' W 094°25'  

Dump ship's entire track history